createdAt,value
2023-05-07T00:00:04.285Z,94762.72
2023-05-07T00:02:32.227Z,94769.03
2023-05-07T00:05:00.341Z,94773.56
2023-05-07T00:07:29.751Z,94770.19
2023-05-07T00:09:57.913Z,94766.47
2023-05-07T00:12:26.482Z,94751.72
2023-05-07T00:14:54.454Z,94766.00
2023-05-07T00:17:22.448Z,94759.66
2023-05-07T00:19:50.534Z,94749.63
2023-05-07T00:22:18.444Z,94754.50
2023-05-07T00:24:47.832Z,94747.22
2023-05-07T00:27:15.700Z,94750.81
2023-05-07T00:29:43.664Z,94744.63
2023-05-07T00:32:11.697Z,94740.94
2023-05-07T00:34:40.613Z,94744.00
2023-05-07T00:37:08.528Z,94744.31
2023-05-07T00:39:36.766Z,94740.63
2023-05-07T00:42:06.160Z,94749.06
2023-05-07T00:44:34.086Z,94751.84
2023-05-07T00:47:05.754Z,94754.09
2023-05-07T00:49:40.007Z,94755.25
2023-05-07T00:52:09.078Z,94754.09
2023-05-07T00:54:37.260Z,94749.75
2023-05-07T00:57:07.416Z,94750.72
2023-05-07T00:59:35.956Z,94755.91
2023-05-07T01:02:03.959Z,94753.66
2023-05-07T01:04:32.029Z,94762.41
2023-05-07T01:07:02.718Z,94755.44
2023-05-07T01:09:31.465Z,94755.75
2023-05-07T01:12:00.682Z,94762.22
2023-05-07T01:14:30.711Z,94757.88
2023-05-07T01:16:59.918Z,94759.00
2023-05-07T01:19:28.150Z,94756.25
2023-05-07T01:22:03.869Z,94754.81
2023-05-07T01:24:33.728Z,94758.53
2023-05-07T01:27:02.452Z,94754.78
2023-05-07T01:29:30.659Z,94751.88
2023-05-07T01:32:00.815Z,94712.00
2023-05-07T01:34:32.504Z,94756.75
2023-05-07T01:37:01.563Z,94753.81
2023-05-07T01:39:31.519Z,94748.16
2023-05-07T01:42:01.630Z,94734.69
2023-05-07T01:44:30.429Z,94744.25
2023-05-07T01:46:59.474Z,94746.69
2023-05-07T01:49:27.888Z,94732.28
2023-05-07T01:51:56.750Z,94725.63
2023-05-07T01:54:28.665Z,94724.47
2023-05-07T01:56:58.118Z,94728.34
2023-05-07T01:59:27.545Z,94726.59
2023-05-07T02:01:55.595Z,94729.34
2023-05-07T02:04:23.624Z,94729.03
2023-05-07T02:06:51.482Z,94730.47
2023-05-07T02:09:19.826Z,94713.44
2023-05-07T02:11:47.718Z,94717.84
2023-05-07T02:14:16.409Z,94712.00
2023-05-07T02:16:45.757Z,94702.59
2023-05-07T02:19:13.771Z,94713.78
2023-05-07T02:21:41.639Z,94700.31
2023-05-07T02:24:09.806Z,94703.06
2023-05-07T02:26:37.695Z,94708.91
2023-05-07T02:29:05.606Z,94710.19
2023-05-07T02:31:34.981Z,94710.19
2023-05-07T02:34:04.963Z,94702.91
2023-05-07T02:36:32.946Z,94706.31
2023-05-07T02:39:01.249Z,94704.22
2023-05-07T02:41:29.496Z,94702.59
2023-05-07T02:43:57.380Z,94698.38
2023-05-07T02:46:25.400Z,94680.38
2023-05-07T02:48:53.336Z,94708.44
2023-05-07T02:51:25.520Z,94713.78
2023-05-07T02:53:54.154Z,94714.09
2023-05-07T02:56:22.096Z,94721.56
2023-05-07T02:58:50.019Z,94724.47
2023-05-07T03:01:18.001Z,94728.34
2023-05-07T03:03:46.764Z,94731.13
2023-05-07T03:06:14.700Z,94725.13
2023-05-07T03:08:43.964Z,94736.00
2023-05-07T03:11:12.135Z,94736.44
2023-05-07T03:13:40.029Z,94736.63
2023-05-07T03:16:08.667Z,94741.19
2023-05-07T03:18:36.760Z,94737.44
2023-05-07T03:21:04.989Z,94725.28
2023-05-07T03:23:32.955Z,94741.16
2023-05-07T03:26:02.226Z,94737.78
2023-05-07T03:28:30.182Z,94741.34
2023-05-07T03:30:58.474Z,94743.94
2023-05-07T03:33:26.464Z,94741.50
2023-05-07T03:35:54.389Z,94746.03
2023-05-07T03:38:22.306Z,94741.84
2023-05-07T03:40:50.169Z,94741.34
2023-05-07T03:43:19.489Z,94746.84
2023-05-07T03:45:47.417Z,94748.47
2023-05-07T03:48:15.306Z,94755.28
2023-05-07T03:50:43.192Z,94747.31
2023-05-07T03:53:11.206Z,94752.34
2023-05-07T03:55:39.067Z,94765.66
2023-05-07T03:58:07.023Z,94761.13
2023-05-07T04:00:39.488Z,94767.59
2023-05-07T04:03:08.528Z,94767.75
2023-05-07T04:05:36.657Z,94774.75
2023-05-07T04:08:04.734Z,94777.34
2023-05-07T04:10:32.610Z,94787.59
2023-05-07T04:13:00.498Z,94772.66
2023-05-07T04:15:28.473Z,94794.69
2023-05-07T04:17:57.726Z,94795.19
2023-05-07T04:20:25.868Z,94801.03
2023-05-07T04:22:53.731Z,94809.50
2023-05-07T04:25:21.709Z,94807.84
2023-05-07T04:27:49.958Z,94810.28
2023-05-07T04:30:18.214Z,94814.66
2023-05-07T04:32:46.548Z,94813.22
2023-05-07T04:35:15.866Z,94816.28
2023-05-07T04:37:43.823Z,94819.22
2023-05-07T04:40:12.468Z,94824.25
2023-05-07T04:42:40.684Z,94812.88
2023-05-07T04:45:09.685Z,94827.00
2023-05-07T04:47:37.654Z,94822.94
2023-05-07T04:50:06.040Z,94822.94
2023-05-07T04:52:35.471Z,94824.72
2023-05-07T04:55:03.689Z,94823.41
2023-05-07T04:57:31.890Z,94819.84
2023-05-07T04:59:59.733Z,94823.41
2023-05-07T05:02:27.638Z,94822.91
2023-05-07T05:04:55.635Z,94815.94
2023-05-07T05:07:23.619Z,94818.16
2023-05-07T05:09:52.978Z,94817.16
2023-05-07T05:12:20.955Z,94817.94
2023-05-07T05:14:48.937Z,94818.91
2023-05-07T05:17:16.854Z,94824.06
2023-05-07T05:19:44.711Z,94817.69
2023-05-07T05:22:12.700Z,94818.00
2023-05-07T05:24:40.793Z,94824.78
2023-05-07T05:27:10.086Z,94801.41
2023-05-07T05:29:38.002Z,94821.50
2023-05-07T05:32:06.083Z,94821.97
2023-05-07T05:34:34.710Z,94824.06
2023-05-07T05:37:02.604Z,94811.56
2023-05-07T05:39:43.109Z,94833.53
2023-05-07T05:42:12.379Z,94829.66
2023-05-07T05:44:40.354Z,94832.81
2023-05-07T05:47:08.264Z,94815.84
2023-05-07T05:49:36.589Z,94814.78
2023-05-07T05:52:04.596Z,94830.19
2023-05-07T05:54:32.441Z,94823.34
2023-05-07T05:57:00.522Z,94798.63
2023-05-07T05:59:29.929Z,94821.03
2023-05-07T06:01:58.009Z,94834.88
2023-05-07T06:04:26.092Z,94828.50
2023-05-07T06:06:54.167Z,94834.72
2023-05-07T06:09:22.307Z,94829.75
2023-05-07T06:11:50.973Z,94835.97
2023-05-07T06:14:18.954Z,94832.38
2023-05-07T06:16:48.354Z,94801.91
2023-05-07T06:19:26.347Z,94824.53
2023-05-07T06:21:54.537Z,94822.56
2023-05-07T06:24:22.378Z,94808.47
2023-05-07T06:26:50.439Z,94822.88
2023-05-07T06:29:18.351Z,94821.00
2023-05-07T06:31:46.335Z,94824.66
2023-05-07T06:34:16.194Z,94815.09
2023-05-07T06:36:44.189Z,94806.53
2023-05-07T06:39:12.112Z,94810.44
2023-05-07T06:41:40.067Z,94809.16
2023-05-07T06:44:09.793Z,94798.56
2023-05-07T06:46:37.947Z,94800.84
2023-05-07T06:49:06.040Z,94803.75
2023-05-07T06:51:35.523Z,94792.78
2023-05-07T06:54:05.458Z,94776.66
2023-05-07T06:56:33.452Z,94795.78
2023-05-07T06:59:02.407Z,94791.22
2023-05-07T07:01:30.524Z,94795.72
2023-05-07T07:03:58.414Z,94791.88
2023-05-07T07:06:26.549Z,94804.22
2023-05-07T07:08:55.769Z,94806.28
2023-05-07T07:11:23.741Z,94793.00
2023-05-07T07:13:51.779Z,94792.56
2023-05-07T07:16:19.813Z,94788.38
2023-05-07T07:18:47.820Z,94788.63
2023-05-07T07:21:15.798Z,94796.72
2023-05-07T07:23:43.729Z,94791.13
2023-05-07T07:26:13.048Z,94791.16
2023-05-07T07:28:47.652Z,94775.06
2023-05-07T07:31:16.309Z,94791.63
2023-05-07T07:33:44.416Z,94784.00
2023-05-07T07:36:12.321Z,94797.34
2023-05-07T07:38:40.247Z,94788.44
2023-05-07T07:41:10.533Z,94797.34
2023-05-07T07:43:39.794Z,94796.97
2023-05-07T07:46:07.714Z,94800.81
2023-05-07T07:48:35.838Z,94791.72
2023-05-07T07:51:04.008Z,94803.78
2023-05-07T07:53:31.959Z,94799.38
2023-05-07T07:56:00.195Z,94811.66
2023-05-07T07:58:28.128Z,94805.78
2023-05-07T08:00:57.533Z,94810.84
2023-05-07T08:03:25.517Z,94795.28
2023-05-07T08:05:53.427Z,94787.78
2023-05-07T08:08:21.371Z,94781.72
2023-05-07T08:10:51.102Z,94796.47
2023-05-07T08:13:19.966Z,94795.63
2023-05-07T08:15:47.882Z,94802.91
2023-05-07T08:18:17.195Z,94797.44
2023-05-07T08:20:45.256Z,94798.38
2023-05-07T08:23:13.401Z,94785.66
2023-05-07T08:25:41.277Z,94791.03
2023-05-07T08:28:10.156Z,94779.88
2023-05-07T08:30:38.239Z,94790.25
2023-05-07T08:33:06.328Z,94789.47
2023-05-07T08:35:35.845Z,94784.03
2023-05-07T08:38:04.174Z,94786.59
2023-05-07T08:40:38.862Z,94776.88
2023-05-07T08:43:08.439Z,94775.25
2023-05-07T08:45:37.253Z,94784.84
2023-05-07T08:48:11.015Z,94772.00
2023-05-07T08:50:40.575Z,94756.31
2023-05-07T08:53:08.633Z,94760.03
2023-05-07T08:55:36.910Z,94762.78
2023-05-07T08:58:07.798Z,94770.53
2023-05-07T09:00:36.809Z,94767.50
2023-05-07T09:03:05.007Z,94761.06
2023-05-07T09:05:32.882Z,94769.09
2023-05-07T09:08:05.243Z,94766.28
2023-05-07T09:10:36.904Z,94759.44
2023-05-07T09:13:06.365Z,94748.41
2023-05-07T09:15:34.385Z,94753.06
2023-05-07T09:18:03.458Z,94749.78
2023-05-07T09:20:32.920Z,94742.00
2023-05-07T09:23:02.323Z,94738.69
2023-05-07T09:25:31.185Z,94740.53
2023-05-07T09:27:59.226Z,94745.28
2023-05-07T09:30:30.600Z,94745.44
2023-05-07T09:32:58.617Z,94742.91
2023-05-07T09:35:28.449Z,94735.22
2023-05-07T09:37:58.090Z,94731.88
2023-05-07T09:40:28.639Z,94717.09
2023-05-07T09:42:56.993Z,94722.84
2023-05-07T09:45:25.797Z,94725.00
2023-05-07T09:47:57.794Z,94712.50
2023-05-07T09:50:30.435Z,94718.91
2023-05-07T09:52:59.295Z,94719.03
2023-05-07T09:55:29.071Z,94716.16
2023-05-07T09:57:57.659Z,94713.41
2023-05-07T10:00:27.686Z,94712.94
2023-05-07T10:02:58.507Z,94697.44
2023-05-07T10:05:27.219Z,94710.28
2023-05-07T10:07:56.494Z,94709.59
2023-05-07T10:10:24.840Z,94708.41
2023-05-07T10:12:55.520Z,94710.13
2023-05-07T10:15:25.739Z,94696.56
2023-05-07T10:17:55.650Z,94698.66
2023-05-07T10:20:23.829Z,94692.72
2023-05-07T10:22:54.316Z,94698.56
2023-05-07T10:25:25.246Z,94698.50
2023-05-07T10:27:57.026Z,94691.59
2023-05-07T10:30:33.079Z,94680.75
2023-05-07T10:33:07.195Z,94680.75
2023-05-07T10:35:41.690Z,94674.38
2023-05-07T10:38:10.307Z,94673.06
2023-05-07T10:40:38.487Z,94660.31
2023-05-07T10:43:10.958Z,94673.69
2023-05-07T10:45:39.183Z,94674.81
2023-05-07T10:48:28.872Z,94674.53
2023-05-07T10:51:20.482Z,94674.56
2023-05-07T10:53:48.394Z,94665.13
2023-05-07T10:56:29.974Z,94668.75
2023-05-07T10:59:43.788Z,94668.81
2023-05-07T11:02:15.428Z,94653.19
2023-05-07T11:04:43.652Z,94654.25
2023-05-07T11:07:33.772Z,94665.41
2023-05-07T11:10:06.944Z,94664.09
2023-05-07T11:13:05.074Z,94660.38
2023-05-07T11:15:45.232Z,94653.72
2023-05-07T11:18:16.029Z,94661.19
2023-05-07T11:20:52.633Z,94652.09
2023-05-07T11:24:00.815Z,94654.78
2023-05-07T11:26:30.770Z,94647.25
2023-05-07T11:29:01.271Z,94645.47
2023-05-07T11:31:31.108Z,94639.72
2023-05-07T11:34:01.761Z,94629.16
2023-05-07T11:36:35.221Z,94637.44
2023-05-07T11:39:03.183Z,94635.25
2023-05-07T11:41:38.189Z,94639.88
2023-05-07T11:44:06.518Z,94641.19
2023-05-07T11:46:35.769Z,94637.16
2023-05-07T11:49:05.571Z,94643.09
2023-05-07T11:51:33.509Z,94638.44
2023-05-07T11:54:01.394Z,94639.19
2023-05-07T11:56:29.257Z,94637.59
2023-05-07T11:58:57.191Z,94636.13
2023-05-07T12:01:25.134Z,94632.16
2023-05-07T12:03:53.079Z,94630.41
2023-05-07T12:06:22.476Z,94625.25
2023-05-07T12:08:50.411Z,94622.97
2023-05-07T12:11:24.031Z,94612.72
2023-05-07T12:13:52.104Z,94579.69
2023-05-07T12:16:20.349Z,94604.66
2023-05-07T12:18:49.276Z,94618.38
2023-05-07T12:21:19.380Z,94599.44
2023-05-07T12:23:49.128Z,94608.53
2023-05-07T12:26:17.075Z,94600.47
2023-05-07T12:28:44.992Z,94591.09
2023-05-07T12:31:12.993Z,94582.47
2023-05-07T12:33:42.201Z,94586.53
2023-05-07T12:36:10.617Z,94583.69
2023-05-07T12:38:40.001Z,94589.44
2023-05-07T12:41:11.102Z,94582.81
2023-05-07T12:43:39.394Z,94588.94
2023-05-07T12:46:09.581Z,94585.38
2023-05-07T12:48:41.077Z,94582.50
2023-05-07T12:51:11.238Z,94582.72
2023-05-07T12:53:43.306Z,94562.91
2023-05-07T12:56:12.748Z,94565.75
2023-05-07T12:58:40.821Z,94545.09
2023-05-07T13:01:11.173Z,94554.41
2023-05-07T13:03:40.329Z,94550.72
2023-05-07T13:06:10.727Z,94548.25
2023-05-07T13:08:41.432Z,94551.78
2023-05-07T13:11:11.297Z,94552.97
2023-05-07T13:13:41.968Z,94544.94
2023-05-07T13:16:11.626Z,94546.97
2023-05-07T13:18:41.339Z,94545.84
2023-05-07T13:21:09.836Z,94546.94
2023-05-07T13:23:39.729Z,94535.53
2023-05-07T13:26:25.016Z,94540.59
2023-05-07T13:28:55.932Z,94526.59
2023-05-07T13:31:23.977Z,94519.31
2023-05-07T13:33:52.326Z,94528.91
2023-05-07T13:36:20.383Z,94532.31
2023-05-07T13:38:48.591Z,94532.56
2023-05-07T13:41:16.787Z,94526.41
2023-05-07T13:43:44.722Z,94530.44
2023-05-07T13:46:14.247Z,94527.22
2023-05-07T13:48:42.285Z,94527.78
2023-05-07T13:51:10.349Z,94524.09
2023-05-07T13:53:38.344Z,94533.34
2023-05-07T13:56:07.080Z,94533.72
2023-05-07T13:58:36.505Z,94533.31
2023-05-07T14:01:06.316Z,94538.41
2023-05-07T14:03:36.307Z,94514.28
2023-05-07T14:06:04.803Z,94536.31
2023-05-07T14:08:32.886Z,94519.13
2023-05-07T14:11:04.524Z,94533.41
2023-05-07T14:13:32.963Z,94543.34
2023-05-07T14:16:01.693Z,94530.34
2023-05-07T14:18:30.144Z,94529.44
2023-05-07T14:20:59.869Z,94537.19
2023-05-07T14:23:28.294Z,94516.34
2023-05-07T14:25:58.228Z,94531.94
2023-05-07T14:28:26.368Z,94509.81
2023-05-07T14:30:57.873Z,94519.63
2023-05-07T14:33:29.155Z,94521.13
2023-05-07T14:35:57.341Z,94522.88
2023-05-07T14:38:26.888Z,94498.06
2023-05-07T14:40:56.924Z,94517.13
2023-05-07T14:43:30.399Z,94521.25
2023-05-07T14:45:58.293Z,94508.97
2023-05-07T14:48:26.469Z,94508.53
2023-05-07T14:50:54.395Z,94504.66
2023-05-07T14:53:22.698Z,94522.50
2023-05-07T14:55:52.399Z,94510.31
2023-05-07T14:58:22.383Z,94511.88
2023-05-07T15:00:50.797Z,94514.19
2023-05-07T15:03:19.951Z,94515.22
2023-05-07T15:05:50.991Z,94515.53
2023-05-07T15:08:20.073Z,94499.91
2023-05-07T15:10:51.096Z,94486.69
2023-05-07T15:13:20.539Z,94526.78
2023-05-07T15:15:48.564Z,94518.97
2023-05-07T15:18:17.192Z,94520.38
2023-05-07T15:20:47.060Z,94510.59
2023-05-07T15:23:15.416Z,94501.53
2023-05-07T15:25:43.449Z,94513.03
2023-05-07T15:28:12.575Z,94519.91
2023-05-07T15:30:41.932Z,94513.19
2023-05-07T15:33:09.887Z,94506.56
2023-05-07T15:35:37.814Z,94497.66
2023-05-07T15:38:06.411Z,94506.34
2023-05-07T15:40:36.239Z,94499.47
2023-05-07T15:43:04.150Z,94500.59
2023-05-07T15:45:32.086Z,94499.44
2023-05-07T15:48:01.411Z,94491.16
2023-05-07T15:50:29.723Z,94491.00
2023-05-07T15:52:58.125Z,94500.16
2023-05-07T15:55:26.616Z,94487.75
2023-05-07T15:57:55.188Z,94491.03
2023-05-07T16:00:23.451Z,94490.63
2023-05-07T16:02:51.705Z,94477.53
2023-05-07T16:05:21.245Z,94476.16
2023-05-07T16:07:49.120Z,94490.94
2023-05-07T16:10:17.392Z,94480.81
2023-05-07T16:12:45.438Z,94486.53
2023-05-07T16:15:14.050Z,94484.94
2023-05-07T16:17:42.217Z,94475.63
2023-05-07T16:20:13.154Z,94486.34
2023-05-07T16:22:42.640Z,94477.41
2023-05-07T16:25:11.509Z,94481.94
2023-05-07T16:27:39.664Z,94487.19
2023-05-07T16:30:09.045Z,94481.59
2023-05-07T16:32:37.205Z,94489.91
2023-05-07T16:35:06.399Z,94486.97
2023-05-07T16:37:35.144Z,94462.06
2023-05-07T16:40:07.351Z,94481.25
2023-05-07T16:42:35.558Z,94483.69
2023-05-07T16:45:04.641Z,94494.84
2023-05-07T16:47:32.917Z,94489.78
2023-05-07T16:50:01.233Z,94489.25
2023-05-07T16:52:31.088Z,94487.06
2023-05-07T16:55:01.452Z,94492.88
2023-05-07T16:57:31.130Z,94494.06
2023-05-07T17:00:00.075Z,94501.06
2023-05-07T17:02:28.533Z,94512.31
2023-05-07T17:04:56.587Z,94511.72
2023-05-07T17:07:26.527Z,94520.50
2023-05-07T17:09:54.501Z,94522.88
2023-05-07T17:12:22.723Z,94519.78
2023-05-07T17:14:51.999Z,94516.06
2023-05-07T17:17:20.428Z,94522.88
2023-05-07T17:19:48.391Z,94520.50
2023-05-07T17:22:16.455Z,94533.00
2023-05-07T17:24:44.402Z,94532.34
2023-05-07T17:27:12.371Z,94493.47
2023-05-07T17:29:40.438Z,94535.91
2023-05-07T17:32:09.845Z,94521.91
2023-05-07T17:34:37.869Z,94510.47
2023-05-07T17:37:05.721Z,94533.31
2023-05-07T17:39:33.642Z,94536.00
2023-05-07T17:42:01.636Z,94529.63
2023-05-07T17:44:29.585Z,94535.84
2023-05-07T17:46:57.632Z,94499.09
2023-05-07T17:49:26.931Z,94539.53
2023-05-07T17:51:55.726Z,94542.09
2023-05-07T17:54:26.319Z,94547.44
2023-05-07T17:56:54.454Z,94535.84
2023-05-07T17:59:22.432Z,94541.78
2023-05-07T18:01:53.012Z,94549.88
2023-05-07T18:04:21.745Z,94560.88
2023-05-07T18:06:51.346Z,94556.41
2023-05-07T18:09:19.369Z,94568.06
2023-05-07T18:11:47.229Z,94559.00
2023-05-07T18:14:15.183Z,94557.19
2023-05-07T18:16:43.323Z,94567.88
2023-05-07T18:19:12.303Z,94570.59
2023-05-07T18:21:40.420Z,94580.72
2023-05-07T18:24:11.130Z,94576.34
2023-05-07T18:26:39.238Z,94567.50
2023-05-07T18:29:07.185Z,94569.56
2023-05-07T18:31:37.559Z,94605.00
2023-05-07T18:34:06.636Z,94596.38
2023-05-07T18:36:34.884Z,94603.47
2023-05-07T18:39:03.507Z,94608.84
2023-05-07T18:41:32.844Z,94615.22
2023-05-07T18:44:00.848Z,94616.84
2023-05-07T18:46:29.507Z,94624.06
2023-05-07T18:48:57.481Z,94628.41
2023-05-07T18:51:25.472Z,94630.97
2023-05-07T18:53:53.380Z,94611.56
2023-05-07T18:56:21.827Z,94638.59
2023-05-07T18:58:51.172Z,94645.78
2023-05-07T19:01:19.101Z,94647.22
2023-05-07T19:03:47.116Z,94651.06
2023-05-07T19:06:15.172Z,94643.03
2023-05-07T19:08:43.234Z,94633.47
2023-05-07T19:11:11.200Z,94649.31
2023-05-07T19:13:39.196Z,94619.72
2023-05-07T19:16:10.394Z,94649.03
2023-05-07T19:18:38.505Z,94657.56
2023-05-07T19:21:06.724Z,94658.53
2023-05-07T19:23:37.087Z,94666.50
2023-05-07T19:26:04.972Z,94656.59
2023-05-07T19:28:32.920Z,94656.16
2023-05-07T19:31:00.953Z,94664.47
2023-05-07T19:33:30.869Z,94669.97
2023-05-07T19:35:59.839Z,94658.53
2023-05-07T19:38:28.010Z,94656.38
2023-05-07T19:40:57.376Z,94667.56
2023-05-07T19:43:25.391Z,94671.28
2023-05-07T19:45:55.072Z,94662.47
2023-05-07T19:48:22.991Z,94676.59
2023-05-07T19:50:52.255Z,94667.91
2023-05-07T19:53:20.353Z,94668.53
2023-05-07T19:55:48.256Z,94669.81
2023-05-07T19:58:16.926Z,94666.22
2023-05-07T20:00:45.145Z,94671.06
2023-05-07T20:03:18.433Z,94675.59
2023-05-07T20:05:47.208Z,94674.75
2023-05-07T20:08:16.495Z,94671.56
2023-05-07T20:10:44.680Z,94678.66
2023-05-07T20:13:12.792Z,94650.28
2023-05-07T20:15:41.060Z,94680.53
2023-05-07T20:18:09.308Z,94677.94
2023-05-07T20:20:37.516Z,94681.78
2023-05-07T20:23:05.420Z,94693.28
2023-05-07T20:25:34.686Z,94686.25
2023-05-07T20:28:02.963Z,94696.13
2023-05-07T20:30:30.839Z,94690.53
2023-05-07T20:32:59.059Z,94690.56
2023-05-07T20:35:27.140Z,94686.97
2023-05-07T20:37:55.106Z,94708.94
2023-05-07T20:40:23.000Z,94673.72
2023-05-07T20:42:52.616Z,94684.97
2023-05-07T20:45:20.899Z,94703.53
2023-05-07T20:47:48.815Z,94666.69
2023-05-07T20:50:16.829Z,94696.50
2023-05-07T20:52:45.226Z,94698.72
2023-05-07T20:55:13.145Z,94691.28
2023-05-07T20:57:43.746Z,94700.97
2023-05-07T21:00:14.225Z,94700.16
2023-05-07T21:02:42.584Z,94684.81
2023-05-07T21:05:10.843Z,94708.63
2023-05-07T21:07:38.810Z,94706.22
2023-05-07T21:10:07.846Z,94711.03
2023-05-07T21:12:39.933Z,94717.13
2023-05-07T21:15:11.411Z,94718.69
2023-05-07T21:17:40.876Z,94720.34
2023-05-07T21:20:10.101Z,94715.91
2023-05-07T21:22:38.016Z,94714.69
2023-05-07T21:25:06.495Z,94717.88
2023-05-07T21:27:34.402Z,94723.13
2023-05-07T21:30:04.892Z,94726.56
2023-05-07T21:32:33.070Z,94725.34
2023-05-07T21:35:02.340Z,94726.94
2023-05-07T21:37:30.392Z,94726.72
2023-05-07T21:39:58.349Z,94735.00
2023-05-07T21:42:26.452Z,94730.56
2023-05-07T21:44:54.419Z,94718.03
2023-05-07T21:47:22.365Z,94730.56
2023-05-07T21:49:53.234Z,94710.59
2023-05-07T21:52:25.985Z,94692.84
2023-05-07T21:54:54.047Z,94727.53
2023-05-07T21:57:22.274Z,94731.97
2023-05-07T21:59:50.184Z,94741.19
2023-05-07T22:02:18.218Z,94733.94
2023-05-07T22:04:46.642Z,94731.91
2023-05-07T22:07:14.586Z,94727.69
2023-05-07T22:09:43.851Z,94735.31
2023-05-07T22:12:11.779Z,94739.97
2023-05-07T22:14:39.706Z,94735.53
2023-05-07T22:17:07.652Z,94738.13
2023-05-07T22:19:35.551Z,94748.78
2023-05-07T22:22:03.615Z,94742.53
2023-05-07T22:24:31.685Z,94722.91
2023-05-07T22:27:00.970Z,94742.88
2023-05-07T22:29:29.260Z,94738.19
2023-05-07T22:31:57.176Z,94736.19
2023-05-07T22:34:25.098Z,94749.63
2023-05-07T22:36:53.038Z,94742.16
2023-05-07T22:39:21.007Z,94745.97
2023-05-07T22:41:49.612Z,94741.25
2023-05-07T22:44:18.916Z,94748.50
2023-05-07T22:46:46.775Z,94754.16
2023-05-07T22:49:14.618Z,94743.69
2023-05-07T22:51:42.524Z,94756.78
2023-05-07T22:54:11.019Z,94743.03
2023-05-07T22:56:40.815Z,94739.53
2023-05-07T22:59:08.971Z,94733.09
2023-05-07T23:01:38.491Z,94736.56
2023-05-07T23:04:06.946Z,94741.41
2023-05-07T23:06:34.866Z,94743.81
2023-05-07T23:09:02.811Z,94742.78
2023-05-07T23:11:30.681Z,94745.06
2023-05-07T23:13:58.828Z,94728.72
2023-05-07T23:16:27.208Z,94735.13
2023-05-07T23:18:56.795Z,94720.19
2023-05-07T23:21:24.866Z,94733.88
2023-05-07T23:23:52.812Z,94733.84
2023-05-07T23:26:20.897Z,94726.25
2023-05-07T23:28:48.884Z,94725.03
2023-05-07T23:31:16.832Z,94716.22
2023-05-07T23:33:44.753Z,94717.44
2023-05-07T23:36:14.049Z,94717.81
2023-05-07T23:38:42.000Z,94707.28
2023-05-07T23:41:09.996Z,94711.72
2023-05-07T23:43:37.936Z,94706.69
2023-05-07T23:46:05.846Z,94706.25
2023-05-07T23:48:33.770Z,94702.59
2023-05-07T23:51:01.634Z,94702.59
2023-05-07T23:53:30.962Z,94701.13
2023-05-07T23:55:58.825Z,94709.16
2023-05-07T23:58:26.990Z,94674.28
